Time,TemperatureF,DewpointF,PressureIn,WindDirection,WindDirectionDegrees,WindSpeedMPH,WindSpeedGustMPH,Humidity,HourlyPrecipIn,Conditions,Clouds,dailyrainin,SoftwareType,DateUTC
2013-06-08 00:01:00,54.0,54.0,29.71,NNE,32,5.0,7.0,100,0.98,, +RA,4.91,VWS V14.01,2013-06-08 04:01:00,
2013-06-08 00:06:00,54.0,54.0,29.72,West,261,6.0,6.0,100,0.77,, +RA,0.04,VWS V14.01,2013-06-08 04:06:00,
2013-06-08 00:11:00,54.0,54.0,29.72,NNE,33,2.0,3.0,100,0.79,, +RA,0.06,VWS V14.01,2013-06-08 04:11:00,
2013-06-08 00:16:00,54.0,54.0,29.71,East,92,1.0,3.0,100,0.80,, +RA,0.07,VWS V14.01,2013-06-08 04:16:00,
2013-06-08 00:21:00,54.0,54.0,29.71,WSW,240,3.0,6.0,100,0.81,, +RA,0.08,VWS V14.01,2013-06-08 04:21:00,
2013-06-08 00:26:00,53.9,53.9,29.70,ENE,71,1.0,3.0,100,0.83,, +RA,0.10,VWS V14.01,2013-06-08 04:26:00,
2013-06-08 00:31:00,54.0,54.0,29.70,NNE,12,1.0,3.0,100,0.85,, +RA,0.12,VWS V14.01,2013-06-08 04:31:00,
2013-06-08 00:36:00,54.0,54.0,29.71,North,0,1.0,5.0,100,0.86,, +RA,0.13,VWS V14.01,2013-06-08 04:36:00,
2013-06-08 00:41:00,54.0,54.0,29.70,ENE,57,2.0,7.0,100,0.87,, +RA,0.14,VWS V14.01,2013-06-08 04:41:00,
2013-06-08 00:46:00,54.0,54.0,29.70,East,82,2.0,5.0,100,0.87,, +RA,0.14,VWS V14.01,2013-06-08 04:46:00,
2013-06-08 00:51:00,54.0,54.0,29.69,NNE,16,8.0,8.0,100,0.89,, +RA,0.16,VWS V14.01,2013-06-08 04:51:00,
2013-06-08 00:57:00,54.0,54.0,29.69,NE,39,0.0,6.0,100,0.90,, +RA,0.17,VWS V14.01,2013-06-08 04:57:00,
2013-06-08 01:01:00,54.0,54.0,29.69,NNW,343,0.0,2.0,100,0.17,, +RA,0.17,VWS V14.01,2013-06-08 05:01:00,
2013-06-08 01:06:00,54.0,54.0,29.68,ESE,121,1.0,1.0,100,0.18,, +RA,0.18,VWS V14.01,2013-06-08 05:06:00,
2013-06-08 01:11:00,54.0,54.0,29.68,NE,55,1.0,6.0,100,0.18,, +RA,0.18,VWS V14.01,2013-06-08 05:11:00,
2013-06-08 01:17:00,54.0,54.0,29.68,NNW,343,2.0,2.0,100,0.20,, +RA,0.20,VWS V14.01,2013-06-08 05:17:00,
2013-06-08 01:22:00,54.0,54.0,29.68,NW,306,1.0,3.0,100,0.22,, +RA,0.22,VWS V14.01,2013-06-08 05:22:00,
2013-06-08 01:27:00,54.0,54.0,29.68,NE,47,0.0,0.0,100,0.22,, +RA,0.22,VWS V14.01,2013-06-08 05:27:00,
2013-06-08 01:32:00,53.9,53.9,29.68,ENE,59,1.0,5.0,100,0.22,, +RA,0.22,VWS V14.01,2013-06-08 05:32:00,
2013-06-08 01:37:00,53.9,53.9,29.67,SSE,156,5.0,6.0,100,0.22,, +RA,0.22,VWS V14.01,2013-06-08 05:37:00,
2013-06-08 01:42:00,53.9,53.9,29.67,WNW,298,0.0,2.0,100,0.22,, +RA,0.22,VWS V14.01,2013-06-08 05:42:00,
2013-06-08 01:47:00,54.0,54.0,29.66,NNE,23,1.0,5.0,100,0.23,, +RA,0.23,VWS V14.01,2013-06-08 05:47:00,
2013-06-08 01:52:00,54.0,54.0,29.66,NW,305,1.0,3.0,100,0.26,, +RA,0.26,VWS V14.01,2013-06-08 05:52:00,
2013-06-08 01:57:00,53.9,53.9,29.66,South,181,1.0,3.0,100,0.28,, +RA,0.28,VWS V14.01,2013-06-08 05:57:00,
2013-06-08 02:02:00,53.9,53.9,29.65,North,4,1.0,3.0,100,0.13,, +RA,0.30,VWS V14.01,2013-06-08 06:02:00,
2013-06-08 02:07:00,53.9,53.9,29.65,NE,47,4.0,8.0,100,0.13,, +RA,0.30,VWS V14.01,2013-06-08 06:07:00,
2013-06-08 02:12:00,53.9,53.9,29.64,NW,304,0.0,3.0,100,0.14,, +RA,0.31,VWS V14.01,2013-06-08 06:12:00,
2013-06-08 02:17:00,53.9,53.9,29.64,NE,34,1.0,3.0,100,0.15,, +RA,0.32,VWS V14.01,2013-06-08 06:17:00,
2013-06-08 02:22:00,53.9,53.9,29.64,North,3,0.0,5.0,100,0.15,, +RA,0.32,VWS V14.01,2013-06-08 06:22:00,
2013-06-08 02:27:00,53.9,53.9,29.63,ESE,114,1.0,3.0,100,0.17,, +RA,0.34,VWS V14.01,2013-06-08 06:27:00,
2013-06-08 02:32:00,53.9,53.9,29.63,NNE,20,0.0,3.0,100,0.17,, +RA,0.34,VWS V14.01,2013-06-08 06:32:00,
2013-06-08 02:37:00,53.7,53.7,29.63,North,0,1.0,5.0,100,0.19,, +RA,0.36,VWS V14.01,2013-06-08 06:37:00,
2013-06-08 02:42:00,53.6,53.6,29.63,North,7,0.0,0.0,100,0.20,, +RA,0.37,VWS V14.01,2013-06-08 06:42:00,
2013-06-08 02:47:00,53.7,53.7,29.63,North,0,3.0,6.0,100,0.20,, +RA,0.37,VWS V14.01,2013-06-08 06:47:00,
2013-06-08 02:52:00,53.6,53.6,29.62,West,261,0.0,3.0,100,0.21,, +RA,0.38,VWS V14.01,2013-06-08 06:52:00,
2013-06-08 02:57:00,53.6,53.6,29.62,West,266,0.0,3.0,100,0.21,, +RA,0.38,VWS V14.01,2013-06-08 06:57:00,
2013-06-08 03:02:00,53.6,53.6,29.61,NNE,15,1.0,2.0,100,0.21,, +RA,0.38,VWS V14.01,2013-06-08 07:02:00,
2013-06-08 03:07:00,53.6,53.6,29.61,ENE,71,3.0,8.0,100,0.08,, +RA,0.38,VWS V14.01,2013-06-08 07:07:00,
2013-06-08 03:12:00,53.5,53.5,29.61,NE,38,2.0,6.0,100,0.09,, +RA,0.39,VWS V14.01,2013-06-08 07:12:00,
2013-06-08 03:17:00,53.5,53.5,29.61,North,0,1.0,2.0,100,0.09,, +RA,0.39,VWS V14.01,2013-06-08 07:17:00,
2013-06-08 03:22:00,53.4,53.4,29.61,NNW,334,0.0,4.0,100,0.10,, +RA,0.40,VWS V14.01,2013-06-08 07:22:00,
2013-06-08 03:27:00,53.4,53.4,29.61,NE,40,1.0,4.0,100,0.10,, +RA,0.40,VWS V14.01,2013-06-08 07:27:00,
2013-06-08 03:32:00,53.4,53.4,29.60,NW,304,1.0,4.0,100,0.11,, +RA,0.41,VWS V14.01,2013-06-08 07:32:00,
2013-06-08 03:37:00,53.4,53.4,29.60,SW,214,3.0,9.0,100,0.11,, +RA,0.41,VWS V14.01,2013-06-08 07:37:00,
2013-06-08 03:42:00,53.4,53.4,29.60,NW,306,2.0,4.0,100,0.11,, +RA,0.41,VWS V14.01,2013-06-08 07:42:00,
2013-06-08 03:47:00,53.4,53.4,29.60,WNW,296,2.0,2.0,100,0.12,, +RA,0.42,VWS V14.01,2013-06-08 07:47:00,
2013-06-08 03:52:00,53.4,53.4,29.59,NNE,25,1.0,4.0,100,0.13,, +RA,0.43,VWS V14.01,2013-06-08 07:52:00,
2013-06-08 03:57:00,53.4,53.4,29.60,NNE,26,2.0,3.0,100,0.13,, +RA,0.43,VWS V14.01,2013-06-08 07:57:00,
2013-06-08 04:02:00,53.4,53.4,29.59,NW,314,5.0,5.0,100,0.13,, +RA,0.43,VWS V14.01,2013-06-08 08:02:00,
2013-06-08 04:07:00,53.4,53.4,29.59,North,9,2.0,5.0,100,0.05,, +RA,0.43,VWS V14.01,2013-06-08 08:07:00,
2013-06-08 04:12:00,53.3,53.3,29.59,WNW,286,2.0,7.0,100,0.06,, +RA,0.44,VWS V14.01,2013-06-08 08:12:00,
2013-06-08 04:17:00,53.3,53.3,29.58,WNW,283,1.0,8.0,100,0.06,, +RA,0.44,VWS V14.01,2013-06-08 08:17:00,
2013-06-08 04:22:00,53.3,53.3,29.58,North,11,2.0,5.0,100,0.06,, +RA,0.44,VWS V14.01,2013-06-08 08:22:00,
2013-06-08 04:27:00,53.3,53.3,29.58,WNW,303,3.0,4.0,100,0.06,, +RA,0.44,VWS V14.01,2013-06-08 08:27:00,
2013-06-08 04:32:00,53.1,53.1,29.58,NW,319,3.0,6.0,100,0.06,, +RA,0.44,VWS V14.01,2013-06-08 08:32:00,
2013-06-08 04:37:00,53.1,53.1,29.58,NNE,14,6.0,6.0,100,0.07,, +RA,0.45,VWS V14.01,2013-06-08 08:37:00,
2013-06-08 04:42:00,53.1,53.1,29.58,North,8,2.0,8.0,100,0.07,, +RA,0.45,VWS V14.01,2013-06-08 08:42:00,
2013-06-08 04:47:00,53.2,53.2,29.59,WNW,298,4.0,10.0,100,0.07,, +RA,0.45,VWS V14.01,2013-06-08 08:47:00,
2013-06-08 04:52:00,53.0,53.0,29.59,WNW,301,0.0,1.0,100,0.07,, +RA,0.45,VWS V14.01,2013-06-08 08:52:00,
2013-06-08 04:57:00,52.8,52.8,29.59,NNE,12,0.0,4.0,100,0.07,, +RA,0.45,VWS V14.01,2013-06-08 08:57:00,
2013-06-08 05:02:00,52.7,52.7,29.59,WNW,301,2.0,6.0,100,0.07,, +RA,0.45,VWS V14.01,2013-06-08 09:02:00,
2013-06-08 05:07:00,52.6,52.6,29.59,NNE,23,6.0,6.0,100,0.02,,-RA,0.45,VWS V14.01,2013-06-08 09:07:00,
2013-06-08 05:12:00,52.4,52.4,29.58,North,349,2.0,5.0,100,0.02,,-RA,0.45,VWS V14.01,2013-06-08 09:12:00,
2013-06-08 05:17:00,52.4,52.4,29.59,North,2,3.0,8.0,100,0.03,,-RA,0.46,VWS V14.01,2013-06-08 09:17:00,
2013-06-08 05:22:00,52.3,52.3,29.59,NNW,337,7.0,9.0,100,0.03,,-RA,0.46,VWS V14.01,2013-06-08 09:22:00,
2013-06-08 05:27:00,52.1,52.1,29.59,NNE,13,0.0,3.0,100,0.03,,-RA,0.46,VWS V14.01,2013-06-08 09:27:00,
2013-06-08 05:32:00,52.0,52.0,29.60,West,267,2.0,4.0,100,0.03,,-RA,0.46,VWS V14.01,2013-06-08 09:32:00,
2013-06-08 05:37:00,52.1,52.1,29.60,SW,220,2.0,4.0,100,0.03,,-RA,0.46,VWS V14.01,2013-06-08 09:37:00,
2013-06-08 05:42:00,52.0,52.0,29.61,NW,313,3.0,3.0,100,0.03,,-RA,0.46,VWS V14.01,2013-06-08 09:42:00,
2013-06-08 05:47:00,51.7,51.7,29.60,North,5,5.0,15.0,100,0.03,,-RA,0.46,VWS V14.01,2013-06-08 09:47:00,
2013-06-08 05:52:00,51.7,51.7,29.60,North,3,2.0,3.0,100,0.03,,-RA,0.46,VWS V14.01,2013-06-08 09:52:00,
2013-06-08 05:57:00,51.7,51.7,29.61,NNE,27,1.0,3.0,100,0.03,,-RA,0.46,VWS V14.01,2013-06-08 09:57:00,
2013-06-08 06:02:00,51.9,51.9,29.61,ENE,63,1.0,2.0,100,0.01,,-RA,0.46,VWS V14.01,2013-06-08 10:02:00,
2013-06-08 06:07:00,51.9,51.9,29.62,NW,306,4.0,4.0,100,0.01,,-RA,0.46,VWS V14.01,2013-06-08 10:07:00,
2013-06-08 06:12:00,51.9,51.9,29.62,WNW,301,4.0,7.0,100,0.01,,-RA,0.46,VWS V14.01,2013-06-08 10:12:00,
2013-06-08 06:17:00,51.9,51.9,29.63,NNW,327,3.0,11.0,100,0.01,,-RA,0.46,VWS V14.01,2013-06-08 10:17:00,
2013-06-08 06:22:00,51.8,51.8,29.63,North,5,3.0,9.0,100,0.01,,-RA,0.46,VWS V14.01,2013-06-08 10:22:00,
2013-06-08 06:27:00,51.7,51.7,29.64,North,7,1.0,4.0,100,0.01,,-RA,0.46,VWS V14.01,2013-06-08 10:27:00,
2013-06-08 06:32:00,51.6,51.6,29.64,WNW,283,2.0,5.0,100,0.01,,-RA,0.46,VWS V14.01,2013-06-08 10:32:00,
2013-06-08 06:37:00,51.6,51.6,29.64,West,262,7.0,7.0,100,0.01,,-RA,0.46,VWS V14.01,2013-06-08 10:37:00,
2013-06-08 06:42:00,51.6,51.6,29.65,ESE,121,7.0,7.0,100,0.01,,-RA,0.46,VWS V14.01,2013-06-08 10:42:00,
2013-06-08 06:47:00,51.6,51.6,29.65,NNE,19,1.0,7.0,100,0.01,,-RA,0.46,VWS V14.01,2013-06-08 10:47:00,
2013-06-08 06:52:00,51.5,51.5,29.66,NNE,17,2.0,6.0,100,0.01,,-RA,0.46,VWS V14.01,2013-06-08 10:52:00,
2013-06-08 06:57:00,51.5,51.5,29.66,WNW,288,0.0,8.0,100,0.01,,-RA,0.46,VWS V14.01,2013-06-08 10:57:00,
2013-06-08 07:02:00,51.6,51.6,29.67,NNE,24,2.0,2.0,100,0.00,,-RA,0.46,VWS V14.01,2013-06-08 11:02:00,
2013-06-08 07:07:00,51.6,51.6,29.67,NNE,29,1.0,10.0,100,0.00,,,0.46,VWS V14.01,2013-06-08 11:07:00,
2013-06-08 07:12:00,51.7,51.7,29.68,North,4,2.0,8.0,100,0.00,,,0.46,VWS V14.01,2013-06-08 11:12:00,
2013-06-08 07:17:00,51.8,51.8,29.70,WNW,286,4.0,5.0,100,0.00,,,0.46,VWS V14.01,2013-06-08 11:17:00,
2013-06-08 07:22:00,51.9,51.9,29.71,North,3,2.0,7.0,100,0.00,,,0.46,VWS V14.01,2013-06-08 11:22:00,
2013-06-08 07:27:00,52.0,52.0,29.72,West,276,1.0,5.0,100,0.00,,,0.46,VWS V14.01,2013-06-08 11:27:00,
2013-06-08 07:32:00,52.0,52.0,29.70,NW,313,2.0,6.0,100,0.00,,,0.46,VWS V14.01,2013-06-08 11:32:00,
2013-06-08 07:37:00,52.1,52.1,29.72,West,264,2.0,6.0,100,0.00,,,0.46,VWS V14.01,2013-06-08 11:37:00,
2013-06-08 07:42:00,52.3,52.3,29.72,North,9,0.0,5.0,100,0.00,,,0.46,VWS V14.01,2013-06-08 11:42:00,
2013-06-08 07:47:00,52.4,52.4,29.73,North,3,5.0,11.0,100,0.00,,,0.46,VWS V14.01,2013-06-08 11:47:00,
2013-06-08 07:52:00,52.3,52.3,29.73,North,8,3.0,4.0,100,0.00,,,0.46,VWS V14.01,2013-06-08 11:52:00,
2013-06-08 07:57:00,52.6,52.6,29.74,North,359,1.0,9.0,100,0.00,,,0.46,VWS V14.01,2013-06-08 11:57:00,
2013-06-08 08:02:00,52.7,52.7,29.74,NNE,20,1.0,3.0,100,0.00,,,0.46,VWS V14.01,2013-06-08 12:02:00,
2013-06-08 08:07:00,53.0,53.0,29.74,SW,216,4.0,4.0,100,0.00,,OVC006,0.46,VWS V14.01,2013-06-08 12:07:00,
2013-06-08 08:12:00,53.1,53.1,29.75,NE,42,4.0,6.0,100,0.00,,OVC006,0.46,VWS V14.01,2013-06-08 12:12:00,
2013-06-08 08:17:00,53.3,53.3,29.75,WNW,284,8.0,9.0,100,0.00,,OVC006,0.46,VWS V14.01,2013-06-08 12:17:00,
2013-06-08 08:22:00,53.3,53.3,29.74,NNE,12,2.0,3.0,100,0.00,,OVC006,0.46,VWS V14.01,2013-06-08 12:22:00,
2013-06-08 08:27:00,53.7,53.7,29.75,SW,225,2.0,3.0,100,0.00,,OVC006,0.46,VWS V14.01,2013-06-08 12:27:00,
2013-06-08 08:32:00,53.9,53.9,29.76,North,3,0.0,10.0,100,0.00,,OVC006,0.46,VWS V14.01,2013-06-08 12:32:00,
2013-06-08 08:37:00,54.4,54.4,29.76,WSW,257,1.0,4.0,100,0.00,,OVC006,0.46,VWS V14.01,2013-06-08 12:37:00,
2013-06-08 08:42:00,54.7,54.7,29.76,West,259,1.0,4.0,100,0.00,,OVC006,0.46,VWS V14.01,2013-06-08 12:42:00,
2013-06-08 08:47:00,55.0,55.0,29.77,West,269,3.0,5.0,100,0.00,,OVC006,0.46,VWS V14.01,2013-06-08 12:47:00,
2013-06-08 08:52:00,55.5,55.5,29.78,SSE,153,4.0,4.0,100,0.00,,OVC006,0.46,VWS V14.01,2013-06-08 12:52:00,
2013-06-08 08:57:00,55.6,55.6,29.78,NNE,16,1.0,6.0,100,0.00,,OVC006,0.46,VWS V14.01,2013-06-08 12:57:00,
2013-06-08 09:02:00,56.1,56.1,29.79,WSW,237,4.0,4.0,100,0.00,,OVC006,0.46,VWS V14.01,2013-06-08 13:02:00,
2013-06-08 09:07:00,56.5,56.5,29.80,WSW,240,4.0,6.0,100,0.00,,OVC010,0.46,VWS V14.01,2013-06-08 13:07:00,
2013-06-08 09:12:00,57.0,57.0,29.81,SSW,195,3.0,4.0,100,0.00,,OVC010,0.46,VWS V14.01,2013-06-08 13:12:00,
2013-06-08 09:17:00,57.7,57.7,29.81,SW,228,3.0,3.0,100,0.00,,OVC010,0.46,VWS V14.01,2013-06-08 13:17:00,
2013-06-08 09:22:00,58.2,58.2,29.82,WSW,239,0.0,3.0,100,0.00,,OVC010,0.46,VWS V14.01,2013-06-08 13:22:00,
2013-06-08 09:27:00,58.7,58.7,29.82,NNE,15,2.0,4.0,100,0.00,,OVC010,0.46,VWS V14.01,2013-06-08 13:27:00,
2013-06-08 09:32:00,58.9,58.9,29.82,NE,39,3.0,6.0,100,0.00,,OVC010,0.46,VWS V14.01,2013-06-08 13:32:00,
2013-06-08 09:37:00,59.5,59.5,29.83,WNW,287,3.0,6.0,100,0.00,,OVC010,0.46,VWS V14.01,2013-06-08 13:37:00,
2013-06-08 09:42:00,60.1,60.1,29.83,North,4,0.0,2.0,100,0.00,,OVC010,0.46,VWS V14.01,2013-06-08 13:42:00,
2013-06-08 09:47:00,60.6,60.6,29.83,North,359,0.0,2.0,100,0.00,,OVC010,0.46,VWS V14.01,2013-06-08 13:47:00,
2013-06-08 09:52:00,61.0,61.0,29.83,SW,216,7.0,8.0,100,0.00,,OVC010,0.46,VWS V14.01,2013-06-08 13:52:00,
2013-06-08 09:57:00,61.5,61.5,29.83,WSW,244,3.0,4.0,100,0.00,,OVC010,0.46,VWS V14.01,2013-06-08 13:57:00,
2013-06-08 10:02:00,61.8,61.8,29.84,NNE,12,2.0,3.0,100,0.00,,OVC010,1.67,VWS V14.01,2013-06-08 14:02:00,
2013-06-08 10:07:00,62.5,62.5,29.83,NNE,18,1.0,5.0,100,0.00,,OVC016,0.46,VWS V14.01,2013-06-08 14:07:00,
2013-06-08 10:12:00,62.9,62.3,29.83,SW,218,0.0,3.0,98,0.00,,OVC016,0.46,VWS V14.01,2013-06-08 14:12:00,
2013-06-08 10:17:00,63.5,62.6,29.83,WNW,286,4.0,5.0,97,0.00,,OVC016,0.46,VWS V14.01,2013-06-08 14:17:00,
2013-06-08 10:22:00,64.2,63.0,29.84,SSW,204,4.0,4.0,96,0.00,,OVC016,0.46,VWS V14.01,2013-06-08 14:22:00,
2013-06-08 10:27:00,64.5,62.7,29.84,SE,146,2.0,7.0,94,0.00,,OVC016,0.46,VWS V14.01,2013-06-08 14:27:00,
2013-06-08 10:32:00,64.8,62.7,29.84,NNW,331,0.0,4.0,93,0.00,,OVC016,0.46,VWS V14.01,2013-06-08 14:32:00,
2013-06-08 10:37:00,65.3,62.9,29.85,SSW,205,0.0,3.0,92,0.00,,OVC016,0.46,VWS V14.01,2013-06-08 14:37:00,
2013-06-08 10:42:00,65.9,63.5,29.84,South,173,1.0,3.0,92,0.00,,OVC016,0.46,VWS V14.01,2013-06-08 14:42:00,
2013-06-08 10:47:00,66.4,63.7,29.84,NW,314,1.0,6.0,91,0.00,,OVC016,0.46,VWS V14.01,2013-06-08 14:47:00,
2013-06-08 10:52:00,66.9,63.6,29.85,NE,37,2.0,5.0,89,0.00,,OVC016,0.46,VWS V14.01,2013-06-08 14:52:00,
2013-06-08 10:57:00,67.4,64.1,29.85,SSW,193,1.0,3.0,89,0.00,,OVC016,0.46,VWS V14.01,2013-06-08 14:57:00,
2013-06-08 11:02:00,67.5,63.5,29.86,SSW,203,2.0,6.0,87,0.00,,OVC016,0.46,VWS V14.01,2013-06-08 15:02:00,
2013-06-08 11:07:00,67.4,63.1,29.86,SW,214,3.0,6.0,86,0.00,,FEW020,0.46,VWS V14.01,2013-06-08 15:07:00,
2013-06-08 11:12:00,67.2,63.5,29.86,ENE,70,0.0,1.0,88,0.00,,FEW020,0.46,VWS V14.01,2013-06-08 15:12:00,
2013-06-08 11:17:00,67.5,63.8,29.87,West,260,2.0,4.0,88,0.00,,FEW020,0.46,VWS V14.01,2013-06-08 15:17:00,
2013-06-08 11:22:00,68.2,64.2,29.87,SW,233,0.0,8.0,87,0.00,,FEW020,0.46,VWS V14.01,2013-06-08 15:22:00,
2013-06-08 11:27:00,68.5,63.8,29.87,South,179,1.0,7.0,85,0.00,,FEW020,0.46,VWS V14.01,2013-06-08 15:27:00,
2013-06-08 11:32:00,68.9,64.6,29.88,North,351,3.0,8.0,86,0.00,,FEW020,0.46,VWS V14.01,2013-06-08 15:32:00,
2013-06-08 11:37:00,68.7,64.0,29.88,SSW,200,1.0,3.0,85,0.00,,FEW020,0.46,VWS V14.01,2013-06-08 15:37:00,
2013-06-08 11:42:00,68.8,63.4,29.88,SSW,206,2.0,7.0,83,0.00,,FEW020,0.46,VWS V14.01,2013-06-08 15:42:00,
2013-06-08 11:47:00,69.0,64.0,29.88,SSW,201,0.0,4.0,84,0.00,,FEW020,0.46,VWS V14.01,2013-06-08 15:47:00,
2013-06-08 11:52:00,69.5,64.1,29.89,SW,215,5.0,10.0,83,0.00,,FEW020,0.46,VWS V14.01,2013-06-08 15:52:00,
2013-06-08 11:57:00,69.7,64.3,29.88,SSW,211,3.0,5.0,83,0.00,,FEW020,0.46,VWS V14.01,2013-06-08 15:57:00,
2013-06-08 12:02:00,70.0,64.9,29.89,SSE,166,1.0,4.0,84,0.00,,FEW020,0.46,VWS V14.01,2013-06-08 16:02:00,
2013-06-08 12:07:00,70.0,63.9,29.89,West,273,1.0,3.0,81,0.00,,BKN026,0.46,VWS V14.01,2013-06-08 16:07:00,
2013-06-08 12:12:00,70.3,64.6,29.88,NNE,18,0.0,7.0,82,0.00,,BKN026,0.46,VWS V14.01,2013-06-08 16:12:00,
2013-06-08 12:17:00,70.6,64.5,29.89,SW,217,0.0,6.0,81,0.00,,BKN026,0.46,VWS V14.01,2013-06-08 16:17:00,
2013-06-08 12:22:00,70.8,64.3,29.89,WSW,238,3.0,6.0,80,0.00,,BKN026,0.46,VWS V14.01,2013-06-08 16:22:00,
2013-06-08 12:27:00,71.3,65.2,29.89,SSE,162,1.0,5.0,81,0.00,,BKN026,0.46,VWS V14.01,2013-06-08 16:27:00,
2013-06-08 12:32:00,71.5,65.0,29.89,SSW,204,4.0,6.0,80,0.00,,BKN026,0.46,VWS V14.01,2013-06-08 16:32:00,
2013-06-08 12:37:00,71.0,64.5,29.89,SW,221,0.0,3.0,80,0.00,,BKN026,0.46,VWS V14.01,2013-06-08 16:37:00,
2013-06-08 12:42:00,71.5,64.7,29.89,NW,325,4.0,5.0,79,0.00,,BKN026,0.46,VWS V14.01,2013-06-08 16:42:00,
2013-06-08 12:47:00,71.3,64.5,29.89,SSW,208,6.0,7.0,79,0.00,,BKN026,0.46,VWS V14.01,2013-06-08 16:47:00,
2013-06-08 12:52:00,71.2,64.7,29.89,SW,223,3.0,6.0,80,0.00,,BKN026,0.46,VWS V14.01,2013-06-08 16:52:00,
2013-06-08 12:57:00,71.2,64.7,29.89,SW,217,6.0,6.0,80,0.00,,BKN026,0.46,VWS V14.01,2013-06-08 16:57:00,
2013-06-08 13:02:00,71.3,65.2,29.90,WSW,251,3.0,9.0,81,0.00,,BKN026,0.46,VWS V14.01,2013-06-08 17:02:00,
2013-06-08 13:07:00,70.7,64.2,29.89,South,174,8.0,8.0,80,0.00,,FEW029,0.46,VWS V14.01,2013-06-08 17:07:00,
2013-06-08 13:12:00,68.7,63.3,29.90,SSE,155,3.0,11.0,83,0.00,,FEW029,0.46,VWS V14.01,2013-06-08 17:12:00,
2013-06-08 13:17:00,67.4,63.1,29.90,South,186,7.0,9.0,86,0.00,,FEW029,0.46,VWS V14.01,2013-06-08 17:17:00,
2013-06-08 13:22:00,67.0,63.3,29.90,South,182,0.0,6.0,88,0.00,,FEW029,0.46,VWS V14.01,2013-06-08 17:22:00,
2013-06-08 13:27:00,67.4,63.7,29.90,SW,215,2.0,8.0,88,0.00,,FEW029,0.46,VWS V14.01,2013-06-08 17:27:00,
2013-06-08 13:32:00,67.4,63.7,29.90,SSE,162,2.0,4.0,88,0.00,,FEW029,0.46,VWS V14.01,2013-06-08 17:32:00,
2013-06-08 14:00:00,68.7,64.3,29.91,SSW,202,4.0,14.0,86,0.00,,FEW029,0.46,VWS V14.01,2013-06-08 18:00:00,
2013-06-08 14:23:00,68.7,64.3,29.91,SSW,202,4.0,14.0,86,0.00,,FEW029,0.46,VWS V14.01,2013-06-08 18:23:00,
2013-06-08 14:28:00,70.7,65.6,29.91,SW,222,2.0,6.0,84,0.00,,FEW029,0.46,VWS V14.01,2013-06-08 18:28:00,
2013-06-08 14:33:00,70.5,65.1,29.91,SSW,209,7.0,7.0,83,0.00,,FEW029,0.46,VWS V14.01,2013-06-08 18:33:00,
2013-06-08 14:38:00,70.4,65.3,29.91,South,178,5.0,8.0,84,0.00,,FEW029,0.46,VWS V14.01,2013-06-08 18:38:00,
2013-06-08 14:43:00,70.1,64.7,29.91,SSW,211,7.0,7.0,83,0.00,,FEW029,0.46,VWS V14.01,2013-06-08 18:43:00,
2013-06-08 14:48:00,70.5,65.8,29.91,SSE,158,3.0,5.0,85,0.00,,FEW029,0.46,VWS V14.01,2013-06-08 18:48:00,
2013-06-08 14:53:00,71.0,65.6,29.91,SSW,202,8.0,8.0,83,0.00,,FEW029,0.46,VWS V14.01,2013-06-08 18:53:00,
2013-06-08 14:58:00,71.4,66.0,29.91,SSW,199,4.0,5.0,83,0.00,,FEW029,0.46,VWS V14.01,2013-06-08 18:58:00,
2013-06-08 15:03:00,71.4,66.0,29.92,SE,143,3.0,8.0,83,0.00,,FEW029,0.46,VWS V14.01,2013-06-08 19:03:00,
2013-06-08 15:08:00,71.3,66.2,29.92,South,179,8.0,8.0,84,0.00,,CLR,0.46,VWS V14.01,2013-06-08 19:08:00,
2013-06-08 15:13:00,71.3,65.5,29.91,SSE,164,2.0,3.0,82,0.00,,CLR,0.46,VWS V14.01,2013-06-08 19:13:00,
2013-06-08 15:18:00,71.3,65.5,29.92,South,188,6.0,8.0,82,0.00,,CLR,0.46,VWS V14.01,2013-06-08 19:18:00,
2013-06-08 15:23:00,71.8,66.0,29.93,South,182,6.0,9.0,82,0.00,,CLR,0.46,VWS V14.01,2013-06-08 19:23:00,
2013-06-08 15:28:00,71.8,66.0,29.92,SSW,206,1.0,8.0,82,0.00,,CLR,0.46,VWS V14.01,2013-06-08 19:28:00,
2013-06-08 15:33:00,72.2,66.4,29.92,SE,137,2.0,6.0,82,0.00,,CLR,0.46,VWS V14.01,2013-06-08 19:33:00,
2013-06-08 15:38:00,72.4,66.6,29.92,South,184,2.0,8.0,82,0.00,,CLR,0.46,VWS V14.01,2013-06-08 19:38:00,
2013-06-08 15:43:00,72.0,65.9,29.92,SW,217,3.0,5.0,81,0.00,,CLR,0.46,VWS V14.01,2013-06-08 19:43:00,
2013-06-08 15:48:00,72.3,66.5,29.92,SSE,149,1.0,7.0,82,0.00,,CLR,0.46,VWS V14.01,2013-06-08 19:48:00,
2013-06-08 15:53:00,72.8,67.0,29.92,South,170,3.0,3.0,82,0.00,,CLR,0.46,VWS V14.01,2013-06-08 19:53:00,
2013-06-08 15:57:00,73.4,66.9,29.92,South,190,0.0,3.0,80,0.00,,CLR,0.46,VWS V14.01,2013-06-08 19:57:00,
2013-06-08 16:02:00,73.3,66.0,29.91,WSW,252,3.0,5.0,78,0.00,,CLR,0.46,VWS V14.01,2013-06-08 20:02:00,
2013-06-08 16:07:00,72.5,66.0,29.91,South,183,3.0,5.0,80,0.00,,SCT031,0.46,VWS V14.01,2013-06-08 20:07:00,
2013-06-08 16:12:00,72.0,65.9,29.91,SSE,165,2.0,3.0,81,0.00,,SCT031,0.46,VWS V14.01,2013-06-08 20:12:00,
2013-06-08 16:17:00,72.0,66.2,29.92,South,180,4.0,6.0,82,0.00,,SCT031,0.46,VWS V14.01,2013-06-08 20:17:00,
2013-06-08 16:22:00,71.8,66.0,29.92,SSE,156,2.0,6.0,82,0.00,,SCT031,0.46,VWS V14.01,2013-06-08 20:22:00,
2013-06-08 16:27:00,71.8,66.7,29.93,ESE,118,2.0,4.0,84,0.00,,SCT031,0.46,VWS V14.01,2013-06-08 20:27:00,
2013-06-08 16:32:00,71.8,66.7,29.93,ESE,119,0.0,3.0,84,0.00,,SCT031,0.46,VWS V14.01,2013-06-08 20:32:00,
2013-06-08 16:37:00,71.6,66.5,29.93,ESE,118,1.0,3.0,84,0.00,,SCT031,0.46,VWS V14.01,2013-06-08 20:37:00,
2013-06-08 16:42:00,71.7,66.6,29.94,South,182,3.0,4.0,84,0.00,,SCT031,0.46,VWS V14.01,2013-06-08 20:42:00,
2013-06-08 16:47:00,71.4,66.7,29.93,SE,140,3.0,6.0,85,0.00,,SCT031,0.46,VWS V14.01,2013-06-08 20:47:00,
2013-06-08 16:52:00,71.0,66.6,29.94,SE,132,4.0,7.0,86,0.00,,SCT031,0.46,VWS V14.01,2013-06-08 20:52:00,
2013-06-08 16:57:00,71.1,66.4,29.93,SE,139,3.0,5.0,85,0.00,,SCT031,0.46,VWS V14.01,2013-06-08 20:57:00,
2013-06-08 17:02:00,71.1,66.7,29.94,SE,141,2.0,3.0,86,0.00,,SCT031,0.46,VWS V14.01,2013-06-08 21:02:00,
2013-06-08 17:07:00,71.2,66.5,29.94,South,175,4.0,7.0,85,0.00,,FEW035,0.46,VWS V14.01,2013-06-08 21:07:00,
2013-06-08 17:12:00,71.1,66.4,29.93,SE,131,2.0,3.0,85,0.00,,FEW035,0.46,VWS V14.01,2013-06-08 21:12:00,
2013-06-08 17:17:00,71.0,66.3,29.94,SSW,204,2.0,2.0,85,0.00,,FEW035,0.46,VWS V14.01,2013-06-08 21:17:00,
2013-06-08 17:22:00,71.2,66.8,29.94,SSW,194,2.0,2.0,86,0.00,,FEW035,0.46,VWS V14.01,2013-06-08 21:22:00,
2013-06-08 17:27:00,71.2,66.5,29.94,SSE,152,0.0,2.0,85,0.00,,FEW035,0.46,VWS V14.01,2013-06-08 21:27:00,
2013-06-08 17:32:00,71.7,66.9,29.94,SSW,201,2.0,3.0,85,0.00,,FEW035,0.46,VWS V14.01,2013-06-08 21:32:00,
2013-06-08 17:37:00,71.7,66.3,29.94,SE,138,3.0,5.0,83,0.00,,FEW035,0.46,VWS V14.01,2013-06-08 21:37:00,
2013-06-08 17:42:00,71.9,66.5,29.94,SE,142,2.0,4.0,83,0.00,,FEW035,0.46,VWS V14.01,2013-06-08 21:42:00,
2013-06-08 17:47:00,72.2,67.4,29.94,ESE,102,3.0,3.0,85,0.00,,FEW035,0.46,VWS V14.01,2013-06-08 21:47:00,
2013-06-08 17:52:00,72.6,66.8,29.94,SE,124,0.0,6.0,82,0.00,,FEW035,0.46,VWS V14.01,2013-06-08 21:52:00,
2013-06-08 17:57:00,72.9,67.4,29.94,SE,127,3.0,3.0,83,0.00,,FEW035,0.46,VWS V14.01,2013-06-08 21:57:00,
2013-06-08 18:02:00,72.9,67.1,29.94,SE,125,1.0,4.0,82,0.00,,FEW035,0.46,VWS V14.01,2013-06-08 22:02:00,
2013-06-08 18:07:00,72.9,66.4,29.95,SE,138,1.0,6.0,80,0.00,,SCT046,0.46,VWS V14.01,2013-06-08 22:07:00,
2013-06-08 18:12:00,72.9,66.7,29.95,ESE,123,1.0,3.0,81,0.00,,SCT046,0.46,VWS V14.01,2013-06-08 22:12:00,
2013-06-08 18:17:00,72.6,66.8,29.96,ESE,114,0.0,5.0,82,0.00,,SCT046,0.46,VWS V14.01,2013-06-08 22:17:00,
2013-06-08 18:22:00,72.2,66.4,29.95,ESE,113,0.0,3.0,82,0.00,,SCT046,0.46,VWS V14.01,2013-06-08 22:22:00,
2013-06-08 18:27:00,72.1,66.3,29.96,ESE,122,1.0,4.0,82,0.00,,SCT046,0.46,VWS V14.01,2013-06-08 22:27:00,
2013-06-08 18:32:00,71.7,66.6,29.96,SSE,158,2.0,3.0,84,0.00,,SCT046,0.46,VWS V14.01,2013-06-08 22:32:00,
2013-06-08 18:37:00,71.2,66.5,29.96,SSW,207,1.0,5.0,85,0.00,,SCT046,0.46,VWS V14.01,2013-06-08 22:37:00,
2013-06-08 18:42:00,70.7,66.0,29.96,SSE,160,0.0,1.0,85,0.00,,SCT046,0.46,VWS V14.01,2013-06-08 22:42:00,
2013-06-08 18:47:00,70.3,65.9,29.97,South,180,1.0,4.0,86,0.00,,SCT046,0.46,VWS V14.01,2013-06-08 22:47:00,
2013-06-08 18:52:00,70.1,65.7,29.97,South,171,1.0,3.0,86,0.00,,SCT046,0.46,VWS V14.01,2013-06-08 22:52:00,
2013-06-08 18:57:00,69.9,65.9,29.97,SE,146,3.0,3.0,87,0.00,,SCT046,0.46,VWS V14.01,2013-06-08 22:57:00,
2013-06-08 19:02:00,69.7,66.3,29.97,SSE,148,0.0,3.0,89,0.00,,SCT046,0.46,VWS V14.01,2013-06-08 23:02:00,
2013-06-08 19:07:00,69.4,66.0,29.97,SSW,204,0.0,3.0,89,0.00,,SCT065,0.46,VWS V14.01,2013-06-08 23:07:00,
2013-06-08 19:12:00,69.2,66.2,29.97,SSW,210,3.0,3.0,90,0.00,,SCT065,0.46,VWS V14.01,2013-06-08 23:12:00,
2013-06-08 19:17:00,69.2,66.5,29.97,SSW,199,0.0,2.0,91,0.00,,SCT065,0.46,VWS V14.01,2013-06-08 23:17:00,
2013-06-08 19:22:00,69.1,66.4,29.98,South,169,0.0,2.0,91,0.00,,SCT065,0.46,VWS V14.01,2013-06-08 23:22:00,
2013-06-08 19:27:00,69.1,66.4,29.98,South,170,0.0,1.0,91,0.00,,SCT065,0.46,VWS V14.01,2013-06-08 23:27:00,
2013-06-08 19:32:00,69.1,66.4,29.98,South,171,1.0,2.0,91,0.00,,SCT065,0.46,VWS V14.01,2013-06-08 23:32:00,
2013-06-08 19:37:00,68.9,66.5,29.98,South,171,0.0,0.0,92,0.00,,SCT065,0.46,VWS V14.01,2013-06-08 23:37:00,
2013-06-08 19:42:00,68.9,66.5,29.98,South,172,0.0,1.0,92,0.00,,SCT065,0.46,VWS V14.01,2013-06-08 23:42:00,
2013-06-08 19:47:00,68.7,66.6,29.98,South,172,1.0,1.0,93,0.00,,SCT065,0.46,VWS V14.01,2013-06-08 23:47:00,
2013-06-08 19:52:00,68.6,66.5,29.98,South,171,0.0,1.0,93,0.00,,SCT065,0.46,VWS V14.01,2013-06-08 23:52:00,
2013-06-08 19:57:00,68.4,66.6,29.98,South,172,0.0,0.0,94,0.00,,SCT065,0.46,VWS V14.01,2013-06-08 23:57:00,
2013-06-08 20:02:00,68.2,66.4,29.98,South,172,0.0,1.0,94,0.00,,SCT065,0.46,VWS V14.01,2013-06-09 00:02:00,
2013-06-08 20:07:00,68.1,66.3,29.99,South,172,0.0,0.0,94,0.00,,BKN065,0.46,VWS V14.01,2013-06-09 00:07:00,
2013-06-08 20:12:00,68.1,66.6,29.99,South,171,0.0,0.0,95,0.00,,BKN065,0.46,VWS V14.01,2013-06-09 00:12:00,
2013-06-08 20:17:00,67.9,66.4,29.99,South,171,0.0,0.0,95,0.00,,BKN065,0.46,VWS V14.01,2013-06-09 00:17:00,
2013-06-08 20:22:00,67.7,66.2,29.99,South,172,0.0,0.0,95,0.00,,BKN065,0.46,VWS V14.01,2013-06-09 00:22:00,
2013-06-08 20:27:00,67.6,66.4,29.99,South,172,0.0,0.0,96,0.00,,BKN065,0.46,VWS V14.01,2013-06-09 00:27:00,
2013-06-08 20:32:00,67.4,66.2,29.99,South,171,0.0,0.0,96,0.00,,BKN065,0.46,VWS V14.01,2013-06-09 00:32:00,
2013-06-08 20:37:00,67.2,66.0,29.99,SSE,164,0.0,0.0,96,0.00,,BKN065,0.46,VWS V14.01,2013-06-09 00:37:00,
2013-06-08 20:42:00,66.8,65.9,29.98,SSE,154,0.0,0.0,97,0.00,,BKN065,0.46,VWS V14.01,2013-06-09 00:42:00,
2013-06-08 20:47:00,66.4,65.5,29.99,SSE,156,0.0,0.0,97,0.00,,BKN065,0.46,VWS V14.01,2013-06-09 00:47:00,
2013-06-08 20:52:00,65.9,65.3,29.99,SSE,160,0.0,0.0,98,0.00,,BKN065,0.46,VWS V14.01,2013-06-09 00:52:00,
2013-06-08 20:57:00,65.5,65.2,29.99,SSE,164,0.0,0.0,99,0.00,,BKN065,0.46,VWS V14.01,2013-06-09 00:57:00,
2013-06-08 21:02:00,65.1,65.1,29.99,SSE,166,0.0,0.0,100,0.00,,BKN065,0.46,VWS V14.01,2013-06-09 01:02:00,
2013-06-08 21:07:00,64.7,64.7,29.99,SSE,166,0.0,0.0,100,0.00,,FEW065,0.46,VWS V14.01,2013-06-09 01:07:00,
2013-06-08 21:12:00,64.4,64.4,29.99,SSE,167,0.0,0.0,100,0.00,,FEW065,0.46,VWS V14.01,2013-06-09 01:12:00,
2013-06-08 21:17:00,63.8,63.8,30.00,SSE,165,0.0,0.0,100,0.00,,FEW065,0.46,VWS V14.01,2013-06-09 01:17:00,
2013-06-08 21:22:00,63.5,63.5,29.99,SSE,162,0.0,0.0,100,0.00,,FEW065,0.46,VWS V14.01,2013-06-09 01:22:00,
2013-06-08 21:27:00,63.2,63.2,29.99,SSE,163,0.0,0.0,100,0.00,,FEW065,0.46,VWS V14.01,2013-06-09 01:27:00,
2013-06-08 21:32:00,62.9,62.9,30.00,SSE,162,0.0,0.0,100,0.00,,FEW065,0.46,VWS V14.01,2013-06-09 01:32:00,
2013-06-08 21:37:00,62.7,62.7,30.01,SSE,164,0.0,0.0,100,0.00,,FEW065,0.46,VWS V14.01,2013-06-09 01:37:00,
2013-06-08 21:42:00,62.8,62.8,30.01,SSE,166,0.0,0.0,100,0.00,,FEW065,0.46,VWS V14.01,2013-06-09 01:42:00,
2013-06-08 21:47:00,62.4,62.4,30.02,SSE,161,0.0,0.0,100,0.00,,FEW065,0.46,VWS V14.01,2013-06-09 01:47:00,
2013-06-08 21:52:00,62.2,62.2,30.02,SSE,168,0.0,1.0,100,0.00,,FEW065,0.46,VWS V14.01,2013-06-09 01:52:00,
2013-06-08 21:57:00,62.5,62.5,30.03,South,169,0.0,0.0,100,0.00,,FEW065,0.46,VWS V14.01,2013-06-09 01:57:00,
2013-06-08 22:02:00,62.4,62.4,30.03,SSE,167,0.0,1.0,100,0.00,,FEW065,0.46,VWS V14.01,2013-06-09 02:02:00,
2013-06-08 22:07:00,62.4,62.4,30.03,SSE,164,0.0,0.0,100,0.00,,CLR,0.46,VWS V14.01,2013-06-09 02:07:00,
2013-06-08 22:12:00,62.3,62.3,30.03,SSE,168,0.0,0.0,100,0.00,,CLR,0.46,VWS V14.01,2013-06-09 02:12:00,
2013-06-08 22:17:00,62.3,62.3,30.03,SSE,159,0.0,0.0,100,0.00,,CLR,0.46,VWS V14.01,2013-06-09 02:17:00,
2013-06-08 22:22:00,62.2,62.2,30.03,SSE,162,0.0,0.0,100,0.00,,CLR,0.46,VWS V14.01,2013-06-09 02:22:00,
2013-06-08 22:27:00,62.0,62.0,30.03,SSE,167,0.0,0.0,100,0.00,,CLR,0.46,VWS V14.01,2013-06-09 02:27:00,
2013-06-08 22:32:00,62.0,62.0,30.03,SSE,157,0.0,0.0,100,0.00,,CLR,0.46,VWS V14.01,2013-06-09 02:32:00,
2013-06-08 22:37:00,61.8,61.8,30.04,SSE,160,0.0,0.0,100,0.00,,CLR,0.46,VWS V14.01,2013-06-09 02:37:00,
2013-06-08 22:42:00,61.5,61.5,30.04,SSE,163,0.0,0.0,100,0.00,,CLR,0.46,VWS V14.01,2013-06-09 02:42:00,
2013-06-08 22:47:00,61.4,61.4,30.04,SSE,159,0.0,0.0,100,0.00,,CLR,0.46,VWS V14.01,2013-06-09 02:47:00,
2013-06-08 22:52:00,61.2,61.2,30.04,SSE,163,0.0,0.0,100,0.00,,CLR,0.46,VWS V14.01,2013-06-09 02:52:00,
2013-06-08 22:57:00,61.0,61.0,30.05,SSE,162,0.0,0.0,100,0.00,,CLR,0.46,VWS V14.01,2013-06-09 02:57:00,
2013-06-08 23:02:00,61.0,61.0,30.05,SSE,162,0.0,0.0,100,0.00,,CLR,0.46,VWS V14.01,2013-06-09 03:02:00,
2013-06-08 23:07:00,60.9,60.9,30.05,SSE,164,0.0,0.0,100,0.00,,CLR,0.46,VWS V14.01,2013-06-09 03:07:00,
2013-06-08 23:12:00,60.7,60.7,30.05,SSE,155,0.0,0.0,100,0.00,,CLR,0.46,VWS V14.01,2013-06-09 03:12:00,
2013-06-08 23:17:00,60.7,60.7,30.05,SSE,168,0.0,0.0,100,0.00,,CLR,0.46,VWS V14.01,2013-06-09 03:17:00,
2013-06-08 23:22:00,60.5,60.5,30.05,South,172,0.0,0.0,100,0.00,,CLR,0.46,VWS V14.01,2013-06-09 03:22:00,
2013-06-08 23:27:00,60.4,60.4,30.06,South,173,0.0,0.0,100,0.00,,CLR,0.46,VWS V14.01,2013-06-09 03:27:00,
2013-06-08 23:32:00,60.4,60.4,30.05,South,173,0.0,0.0,100,0.00,,CLR,0.46,VWS V14.01,2013-06-09 03:32:00,
2013-06-08 23:37:00,60.2,60.2,30.05,South,172,0.0,0.0,100,0.00,,CLR,0.46,VWS V14.01,2013-06-09 03:37:00,
2013-06-08 23:42:00,60.1,60.1,30.05,South,173,0.0,0.0,100,0.00,,CLR,0.46,VWS V14.01,2013-06-09 03:42:00,
2013-06-08 23:47:00,60.1,60.1,30.05,South,173,0.0,0.0,100,0.00,,CLR,0.46,VWS V14.01,2013-06-09 03:47:00,
2013-06-08 23:52:00,60.0,60.0,30.06,South,172,0.0,0.0,100,0.00,,CLR,0.46,VWS V14.01,2013-06-09 03:52:00,
2013-06-08 23:57:00,59.8,59.8,30.05,South,172,0.0,0.0,100,0.00,,CLR,0.46,VWS V14.01,2013-06-09 03:57:00,